Wetterdaten: Woche 18.01.16 - 24.01.16 (KW3)
Datum Zeit Temp. A. Feuchte A. Luftdruck Regen Wind Richtung Taupunkt Windchill Windben
18.01.2016 00:00 -3,5 C 71 % 1023,4 hPa 0,0 l/m 6,4 km/h N -7,9 C -3,7 C 14,5 km/h
18.01.2016 01:00 -3,5 C 71 % 1023,6 hPa 0,0 l/m 6,2 km/h N -7,9 C -3,5 C 15,3 km/h
18.01.2016 02:00 -3,7 C 72 % 1023,8 hPa 0,0 l/m 5,0 km/h N -8,1 C -3,7 C 10,5 km/h
18.01.2016 03:00 -3,9 C 72 % 1023,8 hPa 0,0 l/m 2,2 km/h N -8,2 C -3,9 C 6,4 km/h
18.01.2016 04:00 -5,1 C 73 % 1023,7 hPa 0,0 l/m 0,2 km/h N -9,2 C -5,1 C 2,4 km/h
18.01.2016 05:00 -5,7 C 76 % 1023,8 hPa 0,0 l/m 1,5 km/h N -9,2 C -5,7 C 6,0 km/h
18.01.2016 06:00 -4,4 C 77 % 1024,0 hPa 0,0 l/m 3,3 km/h N -7,9 C -4,4 C 7,6 km/h
18.01.2016 07:00 -4,1 C 77 % 1024,2 hPa 0,0 l/m 2,1 km/h N -7,6 C -4,1 C 7,2 km/h
18.01.2016 08:00 -3,8 C 75 % 1024,3 hPa 0,0 l/m 4,7 km/h N -7,6 C -3,8 C 8,9 km/h
18.01.2016 09:00 -3,5 C 73 % 1024,3 hPa 0,0 l/m 4,4 km/h N -7,7 C -3,5 C 9,3 km/h
18.01.2016 10:00 -2,8 C 69 % 1024,1 hPa 0,0 l/m 5,7 km/h N -7,6 C -3,0 C 12,4 km/h
18.01.2016 11:00 -2,4 C 67 % 1023,7 hPa 0,0 l/m 5,6 km/h N -7,7 C -2,4 C 9,7 km/h
18.01.2016 12:00 -1,5 C 62 % 1022,4 hPa 0,0 l/m 5,7 km/h N -7,7 C -1,8 C 10,2 km/h
18.01.2016 13:00 -1,1 C 61 % 1021,6 hPa 0,0 l/m 4,4 km/h N -7,7 C -1,1 C 9,3 km/h
18.01.2016 14:00 -1,0 C 58 % 1020,9 hPa 0,0 l/m 4,8 km/h N -8,1 C -1,0 C 10,1 km/h
18.01.2016 15:00 -1,1 C 58 % 1020,6 hPa 0,0 l/m 2,8 km/h N -8,3 C -1,1 C 7,2 km/h
18.01.2016 16:00 -2,0 C 61 % 1020,6 hPa 0,0 l/m 0,8 km/h N -8,6 C -2,0 C 4,4 km/h
18.01.2016 17:00 -3,5 C 64 % 1020,5 hPa 0,0 l/m 0,1 km/h N -9,3 C -3,5 C 0,8 km/h
18.01.2016 18:00 -5,2 C 67 % 1020,6 hPa 0,0 l/m 0,0 km/h N -10,3 C -5,2 C 0,0 km/h
18.01.2016 19:00 -6,7 C 74 % 1020,7 hPa 0,0 l/m 0,0 km/h N -10,7 C -6,7 C 0,0 km/h
18.01.2016 20:00 -7,6 C 77 % 1020,7 hPa 0,0 l/m 0,0 km/h N -10,9 C -7,6 C 0,0 km/h
18.01.2016 21:00 -8,0 C 79 % 1020,5 hPa 0,0 l/m 0,0 km/h N -11,0 C -8,0 C 0,8 km/h
18.01.2016 22:00 -8,1 C 81 % 1020,1 hPa 0,0 l/m 0,0 km/h N -10,8 C -8,1 C 0,4 km/h
18.01.2016 23:00 -7,2 C 81 % 1019,9 hPa 0,0 l/m 0,6 km/h N -9,9 C -7,2 C 4,0 km/h
19.01.2016 00:00 -6,6 C 80 % 1019,5 hPa 0,0 l/m 0,3 km/h N -9,4 C -6,6 C 3,6 km/h
19.01.2016 01:00 -6,2 C 79 % 1019,1 hPa 0,0 l/m 0,2 km/h N -9,3 C -6,2 C 2,8 km/h
19.01.2016 02:00 -6,1 C 78 % 1018,7 hPa 0,0 l/m 0,1 km/h N -9,3 C -6,1 C 0,8 km/h
19.01.2016 03:00 -6,4 C 78 % 1018,4 hPa 0,0 l/m 0,0 km/h N -9,6 C -6,4 C 0,4 km/h
19.01.2016 04:00 -6,9 C 78 % 1018,4 hPa 0,0 l/m 0,2 km/h N -10,0 C -6,9 C 2,0 km/h
19.01.2016 05:00 -7,6 C 78 % 1018,3 hPa 0,0 l/m 0,1 km/h N -10,8 C -7,6 C 1,2 km/h
19.01.2016 06:00 -8,9 C 79 % 1018,4 hPa 0,0 l/m 0,1 km/h N -11,8 C -8,9 C 0,8 km/h
19.01.2016 07:00 -9,6 C 80 % 1018,8 hPa 0,0 l/m 0,1 km/h N -12,3 C -9,6 C 1,2 km/h
19.01.2016 08:00 -9,5 C 81 % 1019,2 hPa 0,0 l/m 0,1 km/h N -12,1 C -9,5 C 1,2 km/h
19.01.2016 09:00 -8,4 C 82 % 1019,2 hPa 0,0 l/m 0,1 km/h N -10,9 C -8,4 C 2,0 km/h
19.01.2016 10:00 -5,0 C 81 % 1019,2 hPa 0,0 l/m 0,6 km/h N -7,7 C -5,0 C 4,0 km/h
19.01.2016 11:00 -3,3 C 75 % 1018,9 hPa 0,0 l/m 0,4 km/h N -7,1 C -3,3 C 3,6 km/h
19.01.2016 12:00 -2,5 C 72 % 1018,4 hPa 0,0 l/m 0,2 km/h N -6,9 C -2,5 C 2,8 km/h
19.01.2016 13:00 -3,1 C 71 % 1018,0 hPa 0,0 l/m 0,3 km/h N -7,7 C -3,1 C 2,0 km/h
19.01.2016 14:00 -3,4 C 73 % 1017,6 hPa 0,0 l/m 0,1 km/h N -7,5 C -3,4 C 1,2 km/h
19.01.2016 15:00 -2,8 C 72 % 1017,6 hPa 0,0 l/m 0,3 km/h N -7,2 C -2,8 C 2,4 km/h
19.01.2016 16:00 -3,5 C 69 % 1017,7 hPa 0,3 l/m 0,0 km/h N -8,3 C -3,5 C 0,4 km/h
19.01.2016 17:00 -5,8 C 71 % 1018,2 hPa 0,0 l/m 0,0 km/h N -10,1 C -5,8 C 0,0 km/h
19.01.2016 18:00 -6,0 C 79 % 1018,4 hPa 0,0 l/m 0,0 km/h N -9,1 C -6,0 C 0,4 km/h
19.01.2016 19:00 -5,5 C 81 % 1018,3 hPa 0,0 l/m 0,0 km/h N -8,2 C -5,5 C 0,4 km/h
19.01.2016 20:00 -5,2 C 81 % 1018,1 hPa 0,0 l/m 0,1 km/h N -8,0 C -5,2 C 0,4 km/h
19.01.2016 21:00 -6,2 C 80 % 1018,0 hPa 0,0 l/m 0,1 km/h N -9,1 C -6,2 C 0,8 km/h
19.01.2016 22:00 -7,2 C 81 % 1017,7 hPa 0,0 l/m 0,0 km/h N -9,9 C -7,2 C 0,4 km/h
19.01.2016 23:00 -6,8 C 82 % 1017,4 hPa 0,0 l/m 0,0 km/h N -9,3 C -6,8 C 0,0 km/h
20.01.2016 00:00 -6,3 C 83 % 1017,0 hPa 0,0 l/m 0,1 km/h N -8,7 C -6,3 C 0,8 km/h
20.01.2016 01:00 -6,6 C 83 % 1016,9 hPa 0,0 l/m 0,1 km/h N -9,0 C -6,6 C 1,2 km/h
20.01.2016 02:00 -6,2 C 83 % 1016,9 hPa 0,0 l/m 0,0 km/h N -8,6 C -6,2 C 0,8 km/h
20.01.2016 03:00 -6,7 C 83 % 1016,8 hPa 0,0 l/m 0,1 km/h N -9,1 C -6,7 C 0,8 km/h
20.01.2016 04:00 -7,6 C 83 % 1016,7 hPa 0,0 l/m 0,0 km/h N -10,0 C -7,6 C 0,0 km/h
20.01.2016 05:00 -8,6 C 83 % 1016,9 hPa 0,0 l/m 0,2 km/h N -11,0 C -8,6 C 1,2 km/h
20.01.2016 06:00 -9,2 C 83 % 1017,1 hPa 0,0 l/m 0,1 km/h N -11,5 C -9,2 C 1,2 km/h
20.01.2016 07:00 -10,0 C 84 % 1017,3 hPa 0,0 l/m 0,1 km/h N -12,2 C -10,0 C 1,2 km/h
20.01.2016 08:00 -9,6 C 84 % 1017,5 hPa 0,0 l/m 0,2 km/h N -11,8 C -9,6 C 2,4 km/h
20.01.2016 09:00 -5,3 C 84 % 1017,6 hPa 0,0 l/m 0,7 km/h N -7,6 C -5,3 C 4,0 km/h
20.01.2016 10:00 -1,2 C 77 % 1017,5 hPa 0,0 l/m 6,5 km/h N -4,7 C -1,9 C 21,7 km/h
20.01.2016 11:00 0,1 C 67 % 1017,5 hPa 0,0 l/m 9,4 km/h N -5,4 C -2,8 C 22,1 km/h
20.01.2016 12:00 0,4 C 66 % 1017,4 hPa 0,0 l/m 11,1 km/h N -5,3 C -3,9 C 24,5 km/h
20.01.2016 13:00 0,6 C 65 % 1017,0 hPa 0,0 l/m 6,9 km/h N -5,2 C 0,1 C 20,1 km/h
20.01.2016 14:00 0,8 C 63 % 1016,9 hPa 0,0 l/m 6,3 km/h N -5,3 C 0,7 C 18,9 km/h
20.01.2016 15:00 0,8 C 60 % 1017,2 hPa 0,0 l/m 7,0 km/h N -6,2 C -0,0 C 17,3 km/h
20.01.2016 16:00 0,3 C 57 % 1017,2 hPa 0,0 l/m 5,2 km/h N -7,3 C 0,3 C 16,5 km/h
20.01.2016 17:00 0,2 C 56 % 1017,4 hPa 0,0 l/m 7,4 km/h N -7,5 C -0,8 C 22,1 km/h
20.01.2016 18:00 0,2 C 57 % 1017,5 hPa 0,0 l/m 5,0 km/h N -7,3 C 0,2 C 16,5 km/h
20.01.2016 19:00 0,5 C 57 % 1017,5 hPa 0,0 l/m 6,6 km/h N -7,0 C -0,5 C 19,7 km/h
20.01.2016 20:00 0,9 C 60 % 1017,4 hPa 0,0 l/m 9,8 km/h N -6,1 C -2,3 C 25,3 km/h
20.01.2016 21:00 0,9 C 64 % 1017,5 hPa 0,0 l/m 10,8 km/h N -5,0 C -3,0 C 26,2 km/h
20.01.2016 22:00 0,6 C 68 % 1017,4 hPa 0,0 l/m 11,2 km/h N -4,8 C -3,8 C 28,6 km/h
20.01.2016 23:00 1,0 C 66 % 1017,7 hPa 0,0 l/m 10,0 km/h N -4,7 C -2,2 C 27,8 km/h
21.01.2016 00:00 0,7 C 66 % 1017,6 hPa 0,0 l/m 11,9 km/h N -4,9 C -4,1 C 34,6 km/h
21.01.2016 01:00 0,4 C 70 % 1018,3 hPa 0,0 l/m 12,2 km/h N -4,5 C -4,6 C 26,5 km/h
21.01.2016 02:00 -0,7 C 80 % 1018,8 hPa 0,0 l/m 11,9 km/h N -3,8 C -5,7 C 28,6 km/h
21.01.2016 03:00 -1,2 C 84 % 1019,0 hPa 0,0 l/m 11,1 km/h N -3,6 C -5,5 C 25,0 km/h
21.01.2016 04:00 -1,2 C 84 % 1019,8 hPa 0,0 l/m 7,9 km/h N -3,5 C -2,8 C 20,1 km/h
21.01.2016 05:00 -1,5 C 84 % 1020,7 hPa 0,0 l/m 7,2 km/h N -3,8 C -2,3 C 16,1 km/h
21.01.2016 06:00 -1,6 C 84 % 1021,7 hPa 0,0 l/m 5,8 km/h N -3,9 C -1,6 C 13,3 km/h
21.01.2016 07:00 -1,7 C 84 % 1023,1 hPa 0,0 l/m 6,1 km/h N -4,1 C -1,7 C 16,1 km/h
21.01.2016 08:00 -2,1 C 78 % 1024,2 hPa 0,0 l/m 3,9 km/h N -5,3 C -2,1 C 9,2 km/h
21.01.2016 09:00 -1,7 C 76 % 1024,8 hPa 0,0 l/m 5,8 km/h N -5,4 C -1,8 C 12,4 km/h
21.01.2016 10:00 -1,3 C 75 % 1025,7 hPa 0,0 l/m 8,9 km/h N -5,1 C -3,8 C 20,9 km/h
21.01.2016 11:00 -1,8 C 79 % 1026,6 hPa 0,0 l/m 7,3 km/h N -5,0 C -3,0 C 16,1 km/h
21.01.2016 12:00 -1,4 C 76 % 1026,9 hPa 0,0 l/m 6,8 km/h N -5,1 C -1,9 C 11,3 km/h
21.01.2016 13:00 -1,2 C 72 % 1027,2 hPa 0,0 l/m 6,1 km/h N -5,6 C -1,4 C 13,3 km/h
21.01.2016 14:00 -1,0 C 70 % 1027,7 hPa 0,0 l/m 6,3 km/h N -5,9 C -1,6 C 12,9 km/h
21.01.2016 15:00 -0,9 C 68 % 1028,2 hPa 0,0 l/m 5,5 km/h N -6,0 C -1,0 C 10,9 km/h
21.01.2016 16:00 -1,6 C 67 % 1028,9 hPa 0,0 l/m 2,4 km/h N -6,9 C -1,6 C 6,4 km/h
21.01.2016 17:00 -2,0 C 69 % 1029,8 hPa 0,0 l/m 1,3 km/h N -6,9 C -2,0 C 4,8 km/h
21.01.2016 18:00 -2,6 C 69 % 1030,4 hPa 0,0 l/m 1,2 km/h N -7,5 C -2,6 C 5,2 km/h
21.01.2016 19:00 -3,6 C 70 % 1031,1 hPa 0,0 l/m 0,0 km/h N -8,2 C -3,6 C 1,2 km/h
21.01.2016 20:00 -3,8 C 71 % 1031,7 hPa 0,0 l/m 0,0 km/h N -8,3 C -3,8 C 0,0 km/h
21.01.2016 21:00 -3,8 C 71 % 1032,1 hPa 0,0 l/m 0,0 km/h N -8,3 C -3,8 C 0,0 km/h
21.01.2016 22:00 -3,8 C 71 % 1032,6 hPa 0,0 l/m 0,0 km/h N -8,3 C -3,8 C 0,0 km/h
21.01.2016 23:00 -3,8 C 71 % 1032,9 hPa 0,0 l/m 0,0 km/h N -8,3 C -3,8 C 0,0 km/h
22.01.2016 00:00 -6,1 C 73 % 1033,3 hPa 0,0 l/m 0,0 km/h N -10,1 C -6,1 C 0,0 km/h
22.01.2016 01:00 -7,7 C 75 % 1033,4 hPa 0,0 l/m 0,0 km/h N -11,3 C -7,7 C 0,4 km/h
22.01.2016 02:00 -8,3 C 79 % 1033,8 hPa 0,0 l/m 0,0 km/h N -11,2 C -8,3 C 1,6 km/h
22.01.2016 03:00 -8,7 C 80 % 1033,7 hPa 0,0 l/m 0,1 km/h N -11,4 C -8,7 C 2,0 km/h
22.01.2016 04:00 -9,5 C 81 % 1034,1 hPa 0,0 l/m 0,1 km/h N -12,2 C -9,5 C 1,2 km/h
22.01.2016 05:00 -10,3 C 81 % 1034,4 hPa 0,0 l/m 0,4 km/h N -12,9 C -10,3 C 2,8 km/h
22.01.2016 06:00 -11,5 C 82 % 1034,8 hPa 0,0 l/m 0,0 km/h N -14,0 C -11,5 C 0,0 km/h
22.01.2016 07:00 -11,8 C 83 % 1035,7 hPa 0,0 l/m 0,0 km/h N -14,1 C -11,8 C 0,8 km/h
22.01.2016 08:00 -11,3 C 84 % 1036,3 hPa 0,0 l/m 0,0 km/h N -13,5 C -11,3 C 0,0 km/h
22.01.2016 09:00 -9,4 C 84 % 1036,4 hPa 0,0 l/m 0,1 km/h N -11,6 C -9,4 C 1,2 km/h
22.01.2016 10:00 -6,1 C 82 % 1036,3 hPa 0,0 l/m 0,0 km/h N -8,6 C -6,1 C 0,0 km/h
22.01.2016 11:00 -3,3 C 74 % 1035,9 hPa 0,0 l/m 0,4 km/h N -7,3 C -3,3 C 3,6 km/h
22.01.2016 12:00 -2,2 C 68 % 1035,4 hPa 0,0 l/m 0,5 km/h N -7,3 C -2,2 C 2,8 km/h
22.01.2016 13:00 -1,1 C 64 % 1034,8 hPa 0,0 l/m 0,2 km/h N -7,0 C -1,1 C 2,4 km/h
22.01.2016 14:00 -0,6 C 62 % 1034,7 hPa 0,0 l/m 0,1 km/h N -7,0 C -0,6 C 2,4 km/h
22.01.2016 15:00 -0,5 C 61 % 1034,6 hPa 0,0 l/m 0,0 km/h N -7,0 C -0,5 C 1,2 km/h
22.01.2016 16:00 -1,6 C 61 % 1034,6 hPa 0,0 l/m 0,1 km/h N -8,1 C -1,6 C 1,6 km/h
22.01.2016 17:00 -4,6 C 65 % 1035,1 hPa 0,0 l/m 0,0 km/h N -10,2 C -4,6 C 0,0 km/h
22.01.2016 18:00 -6,6 C 71 % 1035,6 hPa 0,0 l/m 0,0 km/h N -11,0 C -6,6 C 0,0 km/h
22.01.2016 19:00 -8,0 C 76 % 1035,6 hPa 0,0 l/m 0,0 km/h N -11,5 C -8,0 C 0,0 km/h
22.01.2016 20:00 -9,5 C 77 % 1035,6 hPa 0,0 l/m 0,0 km/h N -12,7 C -9,5 C 0,0 km/h
22.01.2016 21:00 -10,4 C 80 % 1035,5 hPa 0,0 l/m 0,0 km/h N -13,2 C -10,4 C 0,0 km/h
22.01.2016 22:00 -10,9 C 81 % 1035,0 hPa 0,0 l/m 0,0 km/h N -13,4 C -10,9 C 0,0 km/h
22.01.2016 23:00 -11,4 C 82 % 1034,6 hPa 0,0 l/m 0,0 km/h N -13,8 C -11,4 C 0,0 km/h
23.01.2016 00:00 -11,8 C 83 % 1034,1 hPa 0,0 l/m 0,0 km/h N -14,1 C -11,8 C 0,0 km/h
23.01.2016 01:00 -12,2 C 83 % 1033,4 hPa 0,0 l/m 0,0 km/h N -14,5 C -12,2 C 0,0 km/h
23.01.2016 02:00 -12,5 C 83 % 1032,9 hPa 0,0 l/m 0,0 km/h N -14,7 C -12,5 C 0,0 km/h
23.01.2016 03:00 -12,8 C 84 % 1032,3 hPa 0,0 l/m 0,0 km/h N -15,0 C -12,8 C 0,0 km/h
23.01.2016 04:00 -13,1 C 84 % 1032,0 hPa 0,0 l/m 0,0 km/h N -15,2 C -13,1 C 0,0 km/h
23.01.2016 05:00 -13,3 C 84 % 1032,0 hPa 0,0 l/m 0,0 km/h N -15,4 C -13,3 C 0,0 km/h
23.01.2016 06:00 -12,9 C 84 % 1032,1 hPa 0,0 l/m 0,0 km/h N -15,0 C -12,9 C 0,0 km/h
23.01.2016 07:00 -12,5 C 84 % 1032,4 hPa 0,0 l/m 0,0 km/h N -14,6 C -12,5 C 0,0 km/h
23.01.2016 08:00 -10,6 C 85 % 1032,6 hPa 0,0 l/m 0,2 km/h N -12,7 C -10,6 C 0,8 km/h
23.01.2016 09:00 -7,9 C 84 % 1032,9 hPa 0,0 l/m 0,2 km/h N -10,1 C -7,9 C 1,2 km/h
23.01.2016 10:00 -6,4 C 84 % 1033,4 hPa 0,0 l/m 0,1 km/h N -8,7 C -6,4 C 0,8 km/h
23.01.2016 11:00 -5,2 C 84 % 1033,0 hPa 0,0 l/m 0,2 km/h N -7,4 C -5,2 C 2,0 km/h
23.01.2016 12:00 -4,5 C 84 % 1032,5 hPa 0,0 l/m 0,2 km/h N -6,8 C -4,5 C 2,4 km/h
23.01.2016 13:00 -4,1 C 84 % 1032,2 hPa 0,0 l/m 0,2 km/h N -6,4 C -4,1 C 2,8 km/h
23.01.2016 14:00 -4,0 C 84 % 1032,3 hPa 0,0 l/m 0,1 km/h N -6,3 C -4,0 C 1,6 km/h
23.01.2016 15:00 -4,0 C 84 % 1032,6 hPa 0,0 l/m 0,0 km/h N -6,3 C -4,0 C 0,0 km/h
23.01.2016 16:00 -4,1 C 84 % 1032,8 hPa 0,0 l/m 0,0 km/h N -6,4 C -4,1 C 0,0 km/h
23.01.2016 17:00 -4,3 C 84 % 1033,3 hPa 0,0 l/m 0,0 km/h N -6,5 C -4,3 C 0,0 km/h
23.01.2016 18:00 -4,1 C 84 % 1033,4 hPa 0,0 l/m 0,0 km/h N -6,4 C -4,1 C 0,0 km/h
23.01.2016 19:00 -3,6 C 84 % 1033,5 hPa 0,0 l/m 0,0 km/h N -5,9 C -3,6 C 0,0 km/h
23.01.2016 20:00 -3,4 C 84 % 1033,7 hPa 0,0 l/m 0,0 km/h N -5,7 C -3,4 C 0,0 km/h
23.01.2016 21:00 -2,2 C 83 % 1033,5 hPa 0,0 l/m 1,2 km/h N -4,7 C -2,2 C 4,4 km/h
23.01.2016 22:00 4,2 C 81 % 1032,4 hPa 0,8 l/m 14,1 km/h N 1,3 C -1,3 C 30,2 km/h
23.01.2016 23:00 5,2 C 75 % 1032,7 hPa 5,7 l/m 17,9 km/h N 1,1 C -2,1 C 36,2 km/h
24.01.2016 00:00 5,3 C 73 % 1032,6 hPa 2,3 l/m 17,8 km/h N 0,9 C -1,8 C 36,2 km/h
24.01.2016 01:00 4,9 C 74 % 1032,8 hPa 0,8 l/m 15,5 km/h N 0,7 C -1,1 C 32,6 km/h
24.01.2016 02:00 4,9 C 74 % 1033,3 hPa 0,0 l/m 12,6 km/h N 0,7 C 0,3 C 27,4 km/h
24.01.2016 03:00 4,8 C 74 % 1033,3 hPa 0,0 l/m 10,0 km/h N 0,6 C 2,0 C 22,5 km/h
24.01.2016 04:00 4,5 C 75 % 1033,5 hPa 0,0 l/m 9,5 km/h N 0,5 C 1,9 C 21,7 km/h
24.01.2016 05:00 4,6 C 75 % 1033,6 hPa 0,0 l/m 10,0 km/h N 0,6 C 1,8 C 20,5 km/h
24.01.2016 06:00 4,8 C 75 % 1033,5 hPa 0,0 l/m 11,4 km/h N 0,6 C 0,9 C 24,9 km/h
24.01.2016 07:00 4,9 C 73 % 1033,8 hPa 0,0 l/m 11,2 km/h N 0,5 C 1,2 C 24,9 km/h
24.01.2016 08:00 5,2 C 71 % 1034,2 hPa 0,0 l/m 9,2 km/h N 0,2 C 2,9 C 20,1 km/h
24.01.2016 09:00 5,4 C 70 % 1034,1 hPa 0,0 l/m 7,1 km/h N 0,3 C 4,8 C 15,7 km/h
24.01.2016 10:00 6,0 C 68 % 1034,4 hPa 0,0 l/m 5,8 km/h N 0,4 C 5,9 C 16,9 km/h
24.01.2016 11:00 6,5 C 65 % 1033,9 hPa 0,0 l/m 7,8 km/h N 0,4 C 5,3 C 17,7 km/h
24.01.2016 12:00 6,6 C 66 % 1033,8 hPa 0,0 l/m 7,6 km/h N 0,6 C 5,6 C 18,1 km/h
24.01.2016 13:00 6,5 C 68 % 1033,4 hPa 0,0 l/m 6,1 km/h N 1,0 C 6,3 C 12,1 km/h
24.01.2016 14:00 6,3 C 70 % 1033,0 hPa 0,0 l/m 3,8 km/h N 1,2 C 6,3 C 8,8 km/h
24.01.2016 15:00 6,4 C 69 % 1032,7 hPa 0,0 l/m 5,7 km/h N 1,2 C 6,3 C 13,3 km/h
24.01.2016 16:00 5,9 C 71 % 1032,5 hPa 0,0 l/m 0,7 km/h N 1,0 C 5,9 C 4,0 km/h
24.01.2016 17:00 4,9 C 73 % 1032,7 hPa 0,0 l/m 0,0 km/h N 0,4 C 4,9 C 0,0 km/h
24.01.2016 18:00 3,7 C 77 % 1033,2 hPa 0,0 l/m 0,0 km/h N -0,1 C 3,7 C 0,0 km/h
24.01.2016 19:00 2,2 C 79 % 1033,1 hPa 0,0 l/m 0,0 km/h N -1,1 C 2,2 C 0,8 km/h
24.01.2016 20:00 0,3 C 80 % 1033,3 hPa 0,0 l/m 0,0 km/h N -2,7 C 0,3 C 0,0 km/h
24.01.2016 21:00 -0,6 C 83 % 1032,8 hPa 0,0 l/m 0,1 km/h N -3,3 C -0,6 C 0,8 km/h
24.01.2016 22:00 -0,2 C 84 % 1032,4 hPa 0,0 l/m 0,0 km/h N -2,5 C -0,2 C 0,8 km/h
24.01.2016 23:00 0,0 C 84 % 1032,1 hPa 0,0 l/m 0,3 km/h N -2,3 C 0,0 C 3,2 km/h
Min-Datum _ 23.01.16 20.01.16 20.01.16 - 18.01.16 - 23.01.16 23.01.16 18.01.16
_ Min-Zeit 05:16 16:46 04:01 - 04:30 - 05:16 05:16 04:30
Minimum _ -13,3 C 56 % 1016,5 hPa - 0,0 km/h - -15,4 C -13,3 C 0,0 km/h
Max-Datum _ 24.01.16 23.01.16 22.01.16 23.01.16 24.01.16 - 23.01.16 24.01.16 20.01.16
_ Max-Zeit 12:31 07:46 08:46 23:17 00:16 - 22:31 12:46 23:31
Maximum _ 6,7 C 85 % 1036,5 hPa 5,7 l/m 20,3 km/h
N
- 1,7 C 6,6 C 41,8 km/h
N
Durchschnitt _ -3,5 C 75 % 1026,4 hPa #9,9 l/m 3,0 km/h N -7,3 C -4,1 C 7,5 km/h